sensor_id;sensor_type;location;lat;lon;timestamp;P1;durP1;ratioP1;P2;durP2;ratioP2
18114;SDS011;9184;54.390;18.620;2023-02-01T00:00:17;11.93;;;2.80;;
18114;SDS011;9184;54.390;18.620;2023-02-01T00:00:49;16.17;;;3.70;;
18114;SDS011;9184;54.390;18.620;2023-02-01T00:01:22;15.20;;;4.10;;
18114;SDS011;9184;54.390;18.620;2023-02-01T00:01:53;12.10;;;3.03;;
18114;SDS011;9184;54.390;18.620;2023-02-01T00:02:25;14.37;;;2.77;;
18114;SDS011;9184;54.390;18.620;2023-02-01T00:02:55;7.20;;;2.60;;
18114;SDS011;9184;54.390;18.620;2023-02-01T00:03:27;13.83;;;2.80;;
18114;SDS011;9184;54.390;18.620;2023-02-01T00:03:57;18.27;;;3.47;;
18114;SDS011;9184;54.390;18.620;2023-02-01T00:04:28;17.93;;;4.20;;
18114;SDS011;9184;54.390;18.620;2023-02-01T00:04:59;12.57;;;3.83;;
18114;SDS011;9184;54.390;18.620;2023-02-01T00:05:30;16.30;;;3.87;;
18114;SDS011;9184;54.390;18.620;2023-02-01T00:06:00;17.70;;;4.67;;
18114;SDS011;9184;54.390;18.620;2023-02-01T00:06:32;14.27;;;4.80;;
18114;SDS011;9184;54.390;18.620;2023-02-01T00:07:02;15.17;;;3.90;;
18114;SDS011;9184;54.390;18.620;2023-02-01T00:07:33;15.47;;;4.00;;
18114;SDS011;9184;54.390;18.620;2023-02-01T00:08:04;20.07;;;4.60;;
18114;SDS011;9184;54.390;18.620;2023-02-01T00:08:35;10.37;;;2.87;;
18114;SDS011;9184;54.390;18.620;2023-02-01T00:09:05;10.03;;;3.20;;
18114;SDS011;9184;54.390;18.620;2023-02-01T00:09:37;11.87;;;3.27;;
18114;SDS011;9184;54.390;18.620;2023-02-01T00:10:10;10.63;;;3.00;;
18114;SDS011;9184;54.390;18.620;2023-02-01T00:10:40;15.87;;;3.67;;
18114;SDS011;9184;54.390;18.620;2023-02-01T00:11:12;14.07;;;3.83;;
18114;SDS011;9184;54.390;18.620;2023-02-01T00:11:42;16.77;;;3.50;;
18114;SDS011;9184;54.390;18.620;2023-02-01T00:12:13;11.80;;;3.30;;
18114;SDS011;9184;54.390;18.620;2023-02-01T00:12:45;17.40;;;4.37;;
18114;SDS011;9184;54.390;18.620;2023-02-01T00:13:15;14.87;;;3.63;;
18114;SDS011;9184;54.390;18.620;2023-02-01T00:13:46;16.17;;;3.00;;
18114;SDS011;9184;54.390;18.620;2023-02-01T00:14:17;14.37;;;4.13;;
18114;SDS011;9184;54.390;18.620;2023-02-01T00:14:48;14.70;;;5.00;;
18114;SDS011;9184;54.390;18.620;2023-02-01T00:15:18;15.07;;;5.33;;
18114;SDS011;9184;54.390;18.620;2023-02-01T00:15:50;19.80;;;4.83;;
18114;SDS011;9184;54.390;18.620;2023-02-01T00:16:22;11.00;;;4.60;;
18114;SDS011;9184;54.390;18.620;2023-02-01T00:16:53;14.77;;;4.60;;
18114;SDS011;9184;54.390;18.620;2023-02-01T00:17:25;14.23;;;4.47;;
18114;SDS011;9184;54.390;18.620;2023-02-01T00:17:55;17.77;;;3.70;;
18114;SDS011;9184;54.390;18.620;2023-02-01T00:18:26;15.00;;;4.40;;
18114;SDS011;9184;54.390;18.620;2023-02-01T00:18:58;13.60;;;3.53;;
18114;SDS011;9184;54.390;18.620;2023-02-01T00:19:29;14.27;;;3.10;;
18114;SDS011;9184;54.390;18.620;2023-02-01T00:19:59;16.03;;;3.33;;
18114;SDS011;9184;54.390;18.620;2023-02-01T00:20:31;14.27;;;4.37;;
18114;SDS011;9184;54.390;18.620;2023-02-01T00:21:01;13.70;;;5.77;;
18114;SDS011;9184;54.390;18.620;2023-02-01T00:21:32;13.33;;;4.60;;
18114;SDS011;9184;54.390;18.620;2023-02-01T00:22:02;13.43;;;4.43;;
18114;SDS011;9184;54.390;18.620;2023-02-01T00:22:33;17.07;;;3.83;;
18114;SDS011;9184;54.390;18.620;2023-02-01T00:23:04;17.00;;;3.93;;
18114;SDS011;9184;54.390;18.620;2023-02-01T00:23:35;14.43;;;4.07;;
18114;SDS011;9184;54.390;18.620;2023-02-01T00:24:07;9.33;;;3.20;;
18114;SDS011;9184;54.390;18.620;2023-02-01T00:24:38;10.53;;;2.97;;
18114;SDS011;9184;54.390;18.620;2023-02-01T00:25:11;18.27;;;3.13;;
18114;SDS011;9184;54.390;18.620;2023-02-01T00:25:42;14.20;;;3.03;;
18114;SDS011;9184;54.390;18.620;2023-02-01T00:26:13;13.73;;;2.77;;
18114;SDS011;9184;54.390;18.620;2023-02-01T00:26:44;12.87;;;4.07;;
18114;SDS011;9184;54.390;18.620;2023-02-01T00:27:16;12.07;;;3.83;;
18114;SDS011;9184;54.390;18.620;2023-02-01T00:27:50;12.93;;;3.77;;
18114;SDS011;9184;54.390;18.620;2023-02-01T00:28:21;14.07;;;3.80;;
18114;SDS011;9184;54.390;18.620;2023-02-01T00:28:52;13.33;;;3.00;;
18114;SDS011;9184;54.390;18.620;2023-02-01T00:29:23;11.93;;;3.53;;
18114;SDS011;9184;54.390;18.620;2023-02-01T00:29:54;19.77;;;3.67;;
18114;SDS011;9184;54.390;18.620;2023-02-01T00:30:25;16.23;;;4.20;;
18114;SDS011;9184;54.390;18.620;2023-02-01T00:30:56;17.80;;;4.30;;
18114;SDS011;9184;54.390;18.620;2023-02-01T00:31:27;13.77;;;4.00;;
18114;SDS011;9184;54.390;18.620;2023-02-01T00:31:57;15.23;;;3.77;;
18114;SDS011;9184;54.390;18.620;2023-02-01T00:32:29;14.43;;;3.87;;
18114;SDS011;9184;54.390;18.620;2023-02-01T00:33:01;14.03;;;3.30;;
18114;SDS011;9184;54.390;18.620;2023-02-01T00:33:32;16.87;;;3.20;;
18114;SDS011;9184;54.390;18.620;2023-02-01T00:34:03;12.47;;;2.80;;
18114;SDS011;9184;54.390;18.620;2023-02-01T00:34:35;8.50;;;2.47;;
18114;SDS011;9184;54.390;18.620;2023-02-01T00:35:06;17.47;;;3.83;;
18114;SDS011;9184;54.390;18.620;2023-02-01T00:35:38;10.80;;;2.67;;
18114;SDS011;9184;54.390;18.620;2023-02-01T00:36:09;11.13;;;2.80;;
18114;SDS011;9184;54.390;18.620;2023-02-01T00:36:40;12.97;;;3.23;;
18114;SDS011;9184;54.390;18.620;2023-02-01T00:37:11;7.30;;;3.07;;
18114;SDS011;9184;54.390;18.620;2023-02-01T00:37:42;19.33;;;3.80;;
18114;SDS011;9184;54.390;18.620;2023-02-01T00:38:13;8.53;;;3.17;;
18114;SDS011;9184;54.390;18.620;2023-02-01T00:38:44;12.33;;;3.77;;
18114;SDS011;9184;54.390;18.620;2023-02-01T00:39:16;18.40;;;3.17;;
18114;SDS011;9184;54.390;18.620;2023-02-01T00:39:47;11.50;;;2.93;;
18114;SDS011;9184;54.390;18.620;2023-02-01T00:40:21;13.53;;;3.43;;
18114;SDS011;9184;54.390;18.620;2023-02-01T00:40:51;21.33;;;4.10;;
18114;SDS011;9184;54.390;18.620;2023-02-01T00:41:22;9.27;;;3.13;;
18114;SDS011;9184;54.390;18.620;2023-02-01T00:41:53;10.83;;;3.20;;
18114;SDS011;9184;54.390;18.620;2023-02-01T00:42:24;13.70;;;3.10;;
18114;SDS011;9184;54.390;18.620;2023-02-01T00:42:55;14.93;;;3.57;;
18114;SDS011;9184;54.390;18.620;2023-02-01T00:43:27;11.93;;;3.87;;
18114;SDS011;9184;54.390;18.620;2023-02-01T00:43:58;17.63;;;3.53;;
18114;SDS011;9184;54.390;18.620;2023-02-01T00:44:29;10.57;;;2.83;;
18114;SDS011;9184;54.390;18.620;2023-02-01T00:45:03;10.13;;;2.70;;
18114;SDS011;9184;54.390;18.620;2023-02-01T00:45:34;13.23;;;2.63;;
18114;SDS011;9184;54.390;18.620;2023-02-01T00:46:06;10.13;;;3.03;;
18114;SDS011;9184;54.390;18.620;2023-02-01T00:46:36;12.13;;;3.00;;
18114;SDS011;9184;54.390;18.620;2023-02-01T00:47:07;8.43;;;2.53;;
18114;SDS011;9184;54.390;18.620;2023-02-01T00:47:38;9.37;;;2.70;;
18114;SDS011;9184;54.390;18.620;2023-02-01T00:48:09;11.60;;;2.93;;
18114;SDS011;9184;54.390;18.620;2023-02-01T00:48:39;9.13;;;1.80;;
18114;SDS011;9184;54.390;18.620;2023-02-01T00:49:11;9.73;;;2.13;;
18114;SDS011;9184;54.390;18.620;2023-02-01T00:49:41;11.67;;;2.17;;
18114;SDS011;9184;54.390;18.620;2023-02-01T00:50:12;11.53;;;3.50;;
18114;SDS011;9184;54.390;18.620;2023-02-01T00:50:43;7.37;;;2.27;;
18114;SDS011;9184;54.390;18.620;2023-02-01T00:51:15;8.23;;;2.47;;
18114;SDS011;9184;54.390;18.620;2023-02-01T00:51:46;9.13;;;2.53;;
18114;SDS011;9184;54.390;18.620;2023-02-01T00:52:17;10.67;;;2.27;;
18114;SDS011;9184;54.390;18.620;2023-02-01T00:52:48;8.23;;;1.93;;
18114;SDS011;9184;54.390;18.620;2023-02-01T00:53:18;12.80;;;2.43;;
18114;SDS011;9184;54.390;18.620;2023-02-01T00:53:50;11.83;;;2.93;;
18114;SDS011;9184;54.390;18.620;2023-02-01T00:54:20;8.90;;;2.73;;
18114;SDS011;9184;54.390;18.620;2023-02-01T00:54:51;12.10;;;2.90;;
18114;SDS011;9184;54.390;18.620;2023-02-01T00:55:24;11.27;;;2.23;;
18114;SDS011;9184;54.390;18.620;2023-02-01T00:55:54;8.70;;;2.50;;
18114;SDS011;9184;54.390;18.620;2023-02-01T00:56:25;10.07;;;2.50;;
18114;SDS011;9184;54.390;18.620;2023-02-01T00:56:57;8.00;;;2.13;;
18114;SDS011;9184;54.390;18.620;2023-02-01T00:57:27;13.10;;;2.20;;
18114;SDS011;9184;54.390;18.620;2023-02-01T00:57:58;11.90;;;2.70;;
18114;SDS011;9184;54.390;18.620;2023-02-01T00:58:28;17.53;;;3.53;;
18114;SDS011;9184;54.390;18.620;2023-02-01T00:59:00;8.13;;;2.27;;
18114;SDS011;9184;54.390;18.620;2023-02-01T00:59:30;11.87;;;2.23;;
18114;SDS011;9184;54.390;18.620;2023-02-01T01:00:01;9.50;;;2.37;;
18114;SDS011;9184;54.390;18.620;2023-02-01T01:00:33;11.13;;;2.43;;
18114;SDS011;9184;54.390;18.620;2023-02-01T01:01:05;9.27;;;2.37;;
18114;SDS011;9184;54.390;18.620;2023-02-01T01:01:35;12.47;;;2.33;;
18114;SDS011;9184;54.390;18.620;2023-02-01T01:02:07;9.80;;;2.10;;
18114;SDS011;9184;54.390;18.620;2023-02-01T01:02:37;5.23;;;1.70;;
18114;SDS011;9184;54.390;18.620;2023-02-01T01:03:08;11.37;;;2.20;;
18114;SDS011;9184;54.390;18.620;2023-02-01T01:03:48;7.13;;;2.03;;
18114;SDS011;9184;54.390;18.620;2023-02-01T01:04:20;9.90;;;2.60;;
18114;SDS011;9184;54.390;18.620;2023-02-01T01:04:51;9.43;;;2.67;;
18114;SDS011;9184;54.390;18.620;2023-02-01T01:05:21;8.50;;;2.07;;
18114;SDS011;9184;54.390;18.620;2023-02-01T01:05:56;8.30;;;2.00;;
18114;SDS011;9184;54.390;18.620;2023-02-01T01:06:27;8.80;;;2.40;;
18114;SDS011;9184;54.390;18.620;2023-02-01T01:06:58;7.53;;;2.27;;
18114;SDS011;9184;54.390;18.620;2023-02-01T01:07:29;10.57;;;2.00;;
18114;SDS011;9184;54.390;18.620;2023-02-01T01:07:59;15.00;;;2.23;;
18114;SDS011;9184;54.390;18.620;2023-02-01T01:08:30;11.70;;;2.80;;
18114;SDS011;9184;54.390;18.620;2023-02-01T01:09:01;12.43;;;2.63;;
18114;SDS011;9184;54.390;18.620;2023-02-01T01:09:33;10.23;;;2.57;;
18114;SDS011;9184;54.390;18.620;2023-02-01T01:10:04;11.63;;;2.60;;
18114;SDS011;9184;54.390;18.620;2023-02-01T01:10:36;10.73;;;2.13;;
18114;SDS011;9184;54.390;18.620;2023-02-01T01:11:07;12.07;;;2.20;;
18114;SDS011;9184;54.390;18.620;2023-02-01T01:11:39;8.80;;;2.33;;
18114;SDS011;9184;54.390;18.620;2023-02-01T01:12:09;13.80;;;3.03;;
18114;SDS011;9184;54.390;18.620;2023-02-01T01:12:40;11.73;;;2.30;;
18114;SDS011;9184;54.390;18.620;2023-02-01T01:13:11;9.23;;;2.57;;
18114;SDS011;9184;54.390;18.620;2023-02-01T01:13:42;15.77;;;3.23;;
18114;SDS011;9184;54.390;18.620;2023-02-01T01:14:13;11.73;;;2.70;;
18114;SDS011;9184;54.390;18.620;2023-02-01T01:14:45;7.30;;;2.43;;
18114;SDS011;9184;54.390;18.620;2023-02-01T01:15:15;12.53;;;3.07;;
18114;SDS011;9184;54.390;18.620;2023-02-01T01:15:46;11.17;;;3.10;;
18114;SDS011;9184;54.390;18.620;2023-02-01T01:16:16;8.57;;;2.37;;
18114;SDS011;9184;54.390;18.620;2023-02-01T01:16:48;14.10;;;2.67;;
18114;SDS011;9184;54.390;18.620;2023-02-01T01:17:20;15.17;;;2.40;;
18114;SDS011;9184;54.390;18.620;2023-02-01T01:17:51;12.23;;;2.70;;
18114;SDS011;9184;54.390;18.620;2023-02-01T01:18:22;10.13;;;2.60;;
18114;SDS011;9184;54.390;18.620;2023-02-01T01:18:53;12.83;;;2.87;;
18114;SDS011;9184;54.390;18.620;2023-02-01T01:19:23;10.17;;;3.03;;
18114;SDS011;9184;54.390;18.620;2023-02-01T01:19:55;10.87;;;2.13;;
18114;SDS011;9184;54.390;18.620;2023-02-01T01:20:25;6.83;;;1.80;;
18114;SDS011;9184;54.390;18.620;2023-02-01T01:20:56;8.27;;;2.27;;
18114;SDS011;9184;54.390;18.620;2023-02-01T01:21:27;12.77;;;2.53;;
18114;SDS011;9184;54.390;18.620;2023-02-01T01:21:58;8.80;;;2.67;;
18114;SDS011;9184;54.390;18.620;2023-02-01T01:22:30;9.70;;;2.27;;
18114;SDS011;9184;54.390;18.620;2023-02-01T01:23:00;9.70;;;2.23;;
18114;SDS011;9184;54.390;18.620;2023-02-01T01:23:31;11.87;;;2.93;;
18114;SDS011;9184;54.390;18.620;2023-02-01T01:24:02;15.87;;;2.90;;
18114;SDS011;9184;54.390;18.620;2023-02-01T01:24:33;11.83;;;2.77;;
18114;SDS011;9184;54.390;18.620;2023-02-01T01:25:05;8.87;;;2.10;;
18114;SDS011;9184;54.390;18.620;2023-02-01T01:25:38;14.27;;;2.40;;
18114;SDS011;9184;54.390;18.620;2023-02-01T01:26:09;11.33;;;2.87;;
18114;SDS011;9184;54.390;18.620;2023-02-01T01:26:40;10.13;;;2.70;;
18114;SDS011;9184;54.390;18.620;2023-02-01T01:27:12;13.87;;;2.60;;
18114;SDS011;9184;54.390;18.620;2023-02-01T01:27:42;8.93;;;2.63;;
18114;SDS011;9184;54.390;18.620;2023-02-01T01:28:12;11.83;;;2.70;;
18114;SDS011;9184;54.390;18.620;2023-02-01T01:28:43;11.17;;;2.50;;
18114;SDS011;9184;54.390;18.620;2023-02-01T01:29:14;13.17;;;2.50;;
18114;SDS011;9184;54.390;18.620;2023-02-01T01:29:48;13.73;;;3.13;;
18114;SDS011;9184;54.390;18.620;2023-02-01T01:30:19;18.87;;;3.93;;
18114;SDS011;9184;54.390;18.620;2023-02-01T01:30:50;15.43;;;3.90;;
18114;SDS011;9184;54.390;18.620;2023-02-01T01:31:20;13.00;;;3.40;;
18114;SDS011;9184;54.390;18.620;2023-02-01T01:31:52;9.90;;;3.43;;
18114;SDS011;9184;54.390;18.620;2023-02-01T01:32:22;18.00;;;3.50;;
18114;SDS011;9184;54.390;18.620;2023-02-01T01:32:53;11.00;;;3.00;;
18114;SDS011;9184;54.390;18.620;2023-02-01T01:33:23;25.90;;;3.80;;
18114;SDS011;9184;54.390;18.620;2023-02-01T01:33:55;14.17;;;2.57;;
18114;SDS011;9184;54.390;18.620;2023-02-01T01:34:26;16.20;;;2.60;;
18114;SDS011;9184;54.390;18.620;2023-02-01T01:34:57;9.83;;;2.53;;
18114;SDS011;9184;54.390;18.620;2023-02-01T01:35:28;12.13;;;2.67;;
18114;SDS011;9184;54.390;18.620;2023-02-01T01:36:00;13.77;;;3.53;;
18114;SDS011;9184;54.390;18.620;2023-02-01T01:36:30;14.67;;;3.60;;
18114;SDS011;9184;54.390;18.620;2023-02-01T01:37:01;8.73;;;2.93;;
18114;SDS011;9184;54.390;18.620;2023-02-01T01:37:32;15.60;;;2.80;;
18114;SDS011;9184;54.390;18.620;2023-02-01T01:38:03;5.47;;;2.50;;
18114;SDS011;9184;54.390;18.620;2023-02-01T01:38:33;13.53;;;2.73;;
18114;SDS011;9184;54.390;18.620;2023-02-01T01:39:06;11.70;;;3.30;;
18114;SDS011;9184;54.390;18.620;2023-02-01T01:39:37;14.13;;;3.00;;
18114;SDS011;9184;54.390;18.620;2023-02-01T01:40:09;14.80;;;3.10;;
18114;SDS011;9184;54.390;18.620;2023-02-01T01:40:45;13.30;;;3.33;;
18114;SDS011;9184;54.390;18.620;2023-02-01T01:41:17;9.57;;;2.20;;
18114;SDS011;9184;54.390;18.620;2023-02-01T01:41:49;11.07;;;3.53;;
18114;SDS011;9184;54.390;18.620;2023-02-01T01:42:20;8.07;;;2.47;;
18114;SDS011;9184;54.390;18.620;2023-02-01T01:42:50;10.33;;;2.83;;
18114;SDS011;9184;54.390;18.620;2023-02-01T01:43:24;14.30;;;3.40;;
18114;SDS011;9184;54.390;18.620;2023-02-01T01:43:56;14.80;;;2.80;;
18114;SDS011;9184;54.390;18.620;2023-02-01T01:45:20;14.03;;;2.80;;
18114;SDS011;9184;54.390;18.620;2023-02-01T01:45:52;13.73;;;2.17;;
18114;SDS011;9184;54.390;18.620;2023-02-01T01:46:23;8.67;;;2.53;;
18114;SDS011;9184;54.390;18.620;2023-02-01T01:46:54;13.43;;;2.63;;
18114;SDS011;9184;54.390;18.620;2023-02-01T01:47:26;10.77;;;2.33;;
18114;SDS011;9184;54.390;18.620;2023-02-01T01:47:57;11.87;;;2.60;;
18114;SDS011;9184;54.390;18.620;2023-02-01T01:48:29;10.30;;;2.77;;
18114;SDS011;9184;54.390;18.620;2023-02-01T01:49:02;12.53;;;3.20;;
18114;SDS011;9184;54.390;18.620;2023-02-01T01:49:34;11.60;;;3.20;;
18114;SDS011;9184;54.390;18.620;2023-02-01T01:50:05;13.33;;;2.80;;
18114;SDS011;9184;54.390;18.620;2023-02-01T01:50:38;13.50;;;3.47;;
18114;SDS011;9184;54.390;18.620;2023-02-01T01:51:10;11.17;;;3.07;;
18114;SDS011;9184;54.390;18.620;2023-02-01T01:51:42;13.33;;;3.43;;
18114;SDS011;9184;54.390;18.620;2023-02-01T01:52:15;8.27;;;2.53;;
18114;SDS011;9184;54.390;18.620;2023-02-01T01:52:46;10.50;;;2.27;;
18114;SDS011;9184;54.390;18.620;2023-02-01T01:53:19;7.13;;;2.40;;
18114;SDS011;9184;54.390;18.620;2023-02-01T01:53:56;10.53;;;2.47;;
18114;SDS011;9184;54.390;18.620;2023-02-01T01:54:29;11.17;;;2.90;;
18114;SDS011;9184;54.390;18.620;2023-02-01T01:55:02;10.93;;;2.23;;
18114;SDS011;9184;54.390;18.620;2023-02-01T01:55:33;15.80;;;3.17;;
18114;SDS011;9184;54.390;18.620;2023-02-01T01:56:08;7.47;;;2.20;;
18114;SDS011;9184;54.390;18.620;2023-02-01T01:56:38;10.43;;;2.53;;
18114;SDS011;9184;54.390;18.620;2023-02-01T01:57:10;13.87;;;2.80;;
18114;SDS011;9184;54.390;18.620;2023-02-01T01:57:43;8.20;;;2.20;;
18114;SDS011;9184;54.390;18.620;2023-02-01T01:58:16;11.97;;;2.23;;
18114;SDS011;9184;54.390;18.620;2023-02-01T01:58:47;11.37;;;2.63;;
18114;SDS011;9184;54.390;18.620;2023-02-01T01:59:18;4.80;;;2.33;;
18114;SDS011;9184;54.390;18.620;2023-02-01T01:59:50;10.97;;;3.67;;
18114;SDS011;9184;54.390;18.620;2023-02-01T02:00:23;17.90;;;5.73;;
18114;SDS011;9184;54.390;18.620;2023-02-01T02:00:54;20.70;;;5.30;;
18114;SDS011;9184;54.390;18.620;2023-02-01T02:01:25;12.53;;;4.47;;
18114;SDS011;9184;54.390;18.620;2023-02-01T02:01:56;11.07;;;3.00;;
18114;SDS011;9184;54.390;18.620;2023-02-01T02:02:27;11.77;;;2.50;;
18114;SDS011;9184;54.390;18.620;2023-02-01T02:02:59;14.73;;;3.40;;
18114;SDS011;9184;54.390;18.620;2023-02-01T02:03:32;25.20;;;9.10;;
18114;SDS011;9184;54.390;18.620;2023-02-01T02:04:04;25.87;;;8.70;;
18114;SDS011;9184;54.390;18.620;2023-02-01T02:04:35;13.03;;;5.40;;
18114;SDS011;9184;54.390;18.620;2023-02-01T02:05:07;12.37;;;3.97;;
18114;SDS011;9184;54.390;18.620;2023-02-01T02:05:38;18.63;;;4.03;;
18114;SDS011;9184;54.390;18.620;2023-02-01T02:06:10;17.30;;;4.17;;
18114;SDS011;9184;54.390;18.620;2023-02-01T02:06:45;24.63;;;6.83;;
18114;SDS011;9184;54.390;18.620;2023-02-01T02:07:19;29.67;;;11.10;;
18114;SDS011;9184;54.390;18.620;2023-02-01T02:07:54;33.40;;;11.63;;
18114;SDS011;9184;54.390;18.620;2023-02-01T02:08:27;26.73;;;9.63;;
18114;SDS011;9184;54.390;18.620;2023-02-01T02:08:58;23.03;;;7.67;;
18114;SDS011;9184;54.390;18.620;2023-02-01T02:09:29;24.00;;;7.77;;
18114;SDS011;9184;54.390;18.620;2023-02-01T02:10:00;15.90;;;6.27;;
18114;SDS011;9184;54.390;18.620;2023-02-01T02:10:30;20.20;;;7.63;;
18114;SDS011;9184;54.390;18.620;2023-02-01T02:11:17;15.07;;;6.07;;
18114;SDS011;9184;54.390;18.620;2023-02-01T02:11:48;20.83;;;5.60;;
18114;SDS011;9184;54.390;18.620;2023-02-01T02:12:19;14.10;;;3.87;;
18114;SDS011;9184;54.390;18.620;2023-02-01T02:12:49;21.20;;;7.17;;
18114;SDS011;9184;54.390;18.620;2023-02-01T02:13:21;21.50;;;8.97;;
18114;SDS011;9184;54.390;18.620;2023-02-01T02:13:52;27.50;;;9.87;;
18114;SDS011;9184;54.390;18.620;2023-02-01T02:14:24;19.57;;;7.97;;
18114;SDS011;9184;54.390;18.620;2023-02-01T02:14:56;14.43;;;4.33;;
18114;SDS011;9184;54.390;18.620;2023-02-01T02:15:27;14.67;;;4.07;;
18114;SDS011;9184;54.390;18.620;2023-02-01T02:16:05;21.23;;;4.27;;
18114;SDS011;9184;54.390;18.620;2023-02-01T02:16:45;15.97;;;5.37;;
18114;SDS011;9184;54.390;18.620;2023-02-01T02:17:21;16.00;;;4.50;;
18114;SDS011;9184;54.390;18.620;2023-02-01T02:17:57;10.60;;;3.37;;
18114;SDS011;9184;54.390;18.620;2023-02-01T02:18:30;12.87;;;2.90;;
18114;SDS011;9184;54.390;18.620;2023-02-01T02:19:58;13.40;;;3.37;;
18114;SDS011;9184;54.390;18.620;2023-02-01T02:20:39;14.70;;;3.53;;
18114;SDS011;9184;54.390;18.620;2023-02-01T02:21:18;13.33;;;3.33;;
18114;SDS011;9184;54.390;18.620;2023-02-01T02:21:56;9.80;;;2.77;;
18114;SDS011;9184;54.390;18.620;2023-02-01T02:22:42;13.30;;;3.70;;
18114;SDS011;9184;54.390;18.620;2023-02-01T02:23:19;17.87;;;3.80;;
18114;SDS011;9184;54.390;18.620;2023-02-01T02:24:52;10.47;;;3.27;;
18114;SDS011;9184;54.390;18.620;2023-02-01T02:25:40;19.70;;;3.80;;
18114;SDS011;9184;54.390;18.620;2023-02-01T02:26:23;13.87;;;2.97;;
18114;SDS011;9184;54.390;18.620;2023-02-01T02:27:03;19.73;;;3.67;;
18114;SDS011;9184;54.390;18.620;2023-02-01T02:27:38;15.03;;;2.63;;
18114;SDS011;9184;54.390;18.620;2023-02-01T02:28:20;13.83;;;3.27;;
18114;SDS011;9184;54.390;18.620;2023-02-01T02:29:07;11.70;;;3.20;;
18114;SDS011;9184;54.390;18.620;2023-02-01T02:29:49;12.20;;;3.00;;
18114;SDS011;9184;54.390;18.620;2023-02-01T02:30:36;15.43;;;2.73;;
18114;SDS011;9184;54.390;18.620;2023-02-01T02:31:23;10.93;;;2.70;;
18114;SDS011;9184;54.390;18.620;2023-02-01T02:32:12;11.03;;;2.40;;
18114;SDS011;9184;54.390;18.620;2023-02-01T02:32:59;12.17;;;2.90;;
18114;SDS011;9184;54.390;18.620;2023-02-01T02:33:39;16.00;;;3.00;;
18114;SDS011;9184;54.390;18.620;2023-02-01T02:34:12;12.17;;;2.73;;
18114;SDS011;9184;54.390;18.620;2023-02-01T02:34:45;12.73;;;2.93;;
18114;SDS011;9184;54.390;18.620;2023-02-01T02:35:17;18.03;;;3.40;;
18114;SDS011;9184;54.390;18.620;2023-02-01T02:35:56;15.47;;;3.43;;
18114;SDS011;9184;54.390;18.620;2023-02-01T02:36:35;14.87;;;3.23;;
18114;SDS011;9184;54.390;18.620;2023-02-01T02:37:10;17.27;;;3.63;;
18114;SDS011;9184;54.390;18.620;2023-02-01T02:37:46;17.47;;;4.07;;
18114;SDS011;9184;54.390;18.620;2023-02-01T02:38:23;12.27;;;3.43;;
18114;SDS011;9184;54.390;18.620;2023-02-01T02:38:58;12.83;;;3.90;;
18114;SDS011;9184;54.390;18.620;2023-02-01T02:39:36;18.17;;;3.10;;
18114;SDS011;9184;54.390;18.620;2023-02-01T02:40:11;16.53;;;3.60;;
18114;SDS011;9184;54.390;18.620;2023-02-01T02:40:46;11.20;;;2.77;;
18114;SDS011;9184;54.390;18.620;2023-02-01T02:41:22;14.87;;;3.10;;
18114;SDS011;9184;54.390;18.620;2023-02-01T02:42:15;11.27;;;2.50;;
18114;SDS011;9184;54.390;18.620;2023-02-01T02:43:07;9.93;;;2.50;;
18114;SDS011;9184;54.390;18.620;2023-02-01T02:43:58;10.90;;;2.50;;
18114;SDS011;9184;54.390;18.620;2023-02-01T02:44:48;13.00;;;3.07;;
18114;SDS011;9184;54.390;18.620;2023-02-01T02:45:42;10.20;;;2.63;;
18114;SDS011;9184;54.390;18.620;2023-02-01T02:46:34;12.53;;;2.97;;
18114;SDS011;9184;54.390;18.620;2023-02-01T02:47:25;12.70;;;2.83;;
18114;SDS011;9184;54.390;18.620;2023-02-01T02:48:00;13.77;;;3.07;;
18114;SDS011;9184;54.390;18.620;2023-02-01T02:48:34;15.20;;;3.33;;
18114;SDS011;9184;54.390;18.620;2023-02-01T02:49:11;9.93;;;2.53;;
18114;SDS011;9184;54.390;18.620;2023-02-01T02:49:44;18.40;;;3.43;;
18114;SDS011;9184;54.390;18.620;2023-02-01T02:50:38;20.07;;;3.57;;
18114;SDS011;9184;54.390;18.620;2023-02-01T02:51:31;12.57;;;2.93;;
18114;SDS011;9184;54.390;18.620;2023-02-01T02:52:21;14.83;;;2.53;;
18114;SDS011;9184;54.390;18.620;2023-02-01T02:53:11;17.87;;;2.80;;
18114;SDS011;9184;54.390;18.620;2023-02-01T02:54:04;16.73;;;3.13;;
18114;SDS011;9184;54.390;18.620;2023-02-01T02:54:54;22.50;;;4.97;;
18114;SDS011;9184;54.390;18.620;2023-02-01T02:55:27;14.63;;;2.80;;
18114;SDS011;9184;54.390;18.620;2023-02-01T02:55:58;19.43;;;3.07;;
18114;SDS011;9184;54.390;18.620;2023-02-01T02:56:48;14.10;;;2.97;;
18114;SDS011;9184;54.390;18.620;2023-02-01T02:57:39;13.27;;;3.27;;
18114;SDS011;9184;54.390;18.620;2023-02-01T02:58:29;11.87;;;3.00;;
18114;SDS011;9184;54.390;18.620;2023-02-01T02:59:19;13.97;;;2.53;;
18114;SDS011;9184;54.390;18.620;2023-02-01T03:00:10;9.63;;;2.53;;
18114;SDS011;9184;54.390;18.620;2023-02-01T03:01:00;6.30;;;2.23;;
18114;SDS011;9184;54.390;18.620;2023-02-01T03:01:49;6.27;;;1.73;;
18114;SDS011;9184;54.390;18.620;2023-02-01T03:02:38;6.50;;;1.60;;
18114;SDS011;9184;54.390;18.620;2023-02-01T03:03:27;5.70;;;1.77;;
18114;SDS011;9184;54.390;18.620;2023-02-01T03:04:17;5.70;;;1.70;;
18114;SDS011;9184;54.390;18.620;2023-02-01T03:04:51;4.83;;;1.87;;
18114;SDS011;9184;54.390;18.620;2023-02-01T03:05:31;5.83;;;1.50;;
18114;SDS011;9184;54.390;18.620;2023-02-01T03:06:02;4.10;;;1.43;;
18114;SDS011;9184;54.390;18.620;2023-02-01T03:06:36;4.00;;;1.70;;
18114;SDS011;9184;54.390;18.620;2023-02-01T03:07:11;8.30;;;1.63;;
18114;SDS011;9184;54.390;18.620;2023-02-01T03:07:46;7.93;;;1.60;;
18114;SDS011;9184;54.390;18.620;2023-02-01T03:08:21;8.70;;;1.97;;
18114;SDS011;9184;54.390;18.620;2023-02-01T03:08:52;5.57;;;1.43;;
18114;SDS011;9184;54.390;18.620;2023-02-01T03:09:27;5.67;;;1.90;;
18114;SDS011;9184;54.390;18.620;2023-02-01T03:10:01;3.70;;;1.50;;
18114;SDS011;9184;54.390;18.620;2023-02-01T03:10:36;6.73;;;1.90;;
18114;SDS011;9184;54.390;18.620;2023-02-01T03:11:09;6.40;;;1.67;;
18114;SDS011;9184;54.390;18.620;2023-02-01T03:11:40;9.87;;;1.90;;
18114;SDS011;9184;54.390;18.620;2023-02-01T03:12:32;4.97;;;1.77;;
18114;SDS011;9184;54.390;18.620;2023-02-01T03:13:24;11.13;;;1.93;;
18114;SDS011;9184;54.390;18.620;2023-02-01T03:13:57;9.73;;;2.17;;
18114;SDS011;9184;54.390;18.620;2023-02-01T03:14:28;6.97;;;1.93;;
18114;SDS011;9184;54.390;18.620;2023-02-01T03:15:00;7.27;;;1.90;;
18114;SDS011;9184;54.390;18.620;2023-02-01T03:15:34;6.97;;;1.63;;
18114;SDS011;9184;54.390;18.620;2023-02-01T03:16:07;12.27;;;2.50;;
18114;SDS011;9184;54.390;18.620;2023-02-01T03:16:40;4.10;;;1.77;;
18114;SDS011;9184;54.390;18.620;2023-02-01T03:17:12;10.97;;;2.73;;
18114;SDS011;9184;54.390;18.620;2023-02-01T03:17:43;5.83;;;1.80;;
18114;SDS011;9184;54.390;18.620;2023-02-01T03:18:15;13.17;;;3.10;;
18114;SDS011;9184;54.390;18.620;2023-02-01T03:18:49;7.70;;;2.07;;
18114;SDS011;9184;54.390;18.620;2023-02-01T03:19:23;14.40;;;2.20;;
18114;SDS011;9184;54.390;18.620;2023-02-01T03:19:55;8.47;;;2.90;;
18114;SDS011;9184;54.390;18.620;2023-02-01T03:20:28;6.57;;;2.43;;
18114;SDS011;9184;54.390;18.620;2023-02-01T03:21:00;8.77;;;3.13;;
18114;SDS011;9184;54.390;18.620;2023-02-01T03:21:34;13.23;;;2.73;;
18114;SDS011;9184;54.390;18.620;2023-02-01T03:22:07;8.67;;;2.33;;
18114;SDS011;9184;54.390;18.620;2023-02-01T03:22:38;12.00;;;2.67;;
18114;SDS011;9184;54.390;18.620;2023-02-01T03:23:10;12.97;;;3.07;;
18114;SDS011;9184;54.390;18.620;2023-02-01T03:23:42;14.70;;;3.27;;
18114;SDS011;9184;54.390;18.620;2023-02-01T03:24:16;9.87;;;3.00;;